Time;durP1;ratioP1;P1;durP2;ratioP2;P2;SDS_P1;SDS_P2;PMS_P1;PMS_P2;Temp;Humidity;BMP_temperature;BMP_pressure;BME280_temperature;BME280_humidity;BME280_pressure;Samples;Min_cycle;Max_cycle;Signal;HPM_P1;HPM_P2
2024/01/27 00:00:33;;;;;;;3.70;0.50;;;;;;;6.24;86.48;102035.75;5054805;28;20469;-73
2024/01/27 00:03:00;;;;;;;1.77;0.50;;;;;;;6.27;86.94;102044.19;5054475;28;20461;-72
2024/01/27 00:05:27;;;;;;;1.70;0.40;;;;;;;6.27;86.87;102041.50;5053953;28;20446;-72
2024/01/27 00:07:54;;;;;;;1.60;0.30;;;;;;;6.25;86.38;102035.53;5054243;28;20953;-73
2024/01/27 00:10:21;;;;;;;5.30;1.17;;;;;;;6.26;85.93;102039.88;5053753;28;20486;-72
2024/01/27 00:12:48;;;;;;;5.00;1.03;;;;;;;6.19;86.12;102036.47;5053975;28;20501;-72
2024/01/27 00:15:14;;;;;;;1.63;0.40;;;;;;;6.16;86.21;102047.72;5053514;28;20484;-72
2024/01/27 00:17:41;;;;;;;1.50;0.30;;;;;;;6.24;85.03;102035.75;5054198;28;20442;-72
2024/01/27 00:20:08;;;;;;;1.50;0.30;;;;;;;6.21;85.47;102047.81;5053540;28;20474;-72
2024/01/27 00:22:35;;;;;;;2.33;0.53;;;;;;;6.17;85.33;102030.53;5053329;28;20889;-72
2024/01/27 00:25:03;;;;;;;1.60;0.50;;;;;;;6.15;85.37;102042.56;5053306;28;20533;-72
2024/01/27 00:27:30;;;;;;;1.80;0.60;;;;;;;6.17;85.36;102049.34;5053337;28;20525;-72
2024/01/27 00:29:57;;;;;;;1.57;0.40;;;;;;;6.13;85.05;102058.94;5053713;28;20573;-72
2024/01/27 00:32:23;;;;;;;5.27;1.10;;;;;;;6.10;84.72;102063.97;5053445;28;20894;-73
2024/01/27 00:34:50;;;;;;;3.40;0.97;;;;;;;6.12;84.51;102049.25;5053530;28;20517;-72
2024/01/27 00:37:17;;;;;;;1.60;0.40;;;;;;;6.12;84.02;102049.25;5053625;28;20445;-72
2024/01/27 00:39:45;;;;;;;9.13;0.60;;;;;;;6.07;83.79;102049.13;5053432;28;20439;-72
2024/01/27 00:42:13;;;;;;;2.00;0.60;;;;;;;6.05;82.83;102048.53;5053046;28;21048;-73
2024/01/27 00:44:39;;;;;;;1.50;0.30;;;;;;;6.08;82.70;102058.84;5053059;28;20893;-73
2024/01/27 00:47:06;;;;;;;1.80;0.60;;;;;;;6.00;83.17;102059.19;5053779;28;20481;-73
2024/01/27 00:49:33;;;;;;;1.70;0.37;;;;;;;5.96;83.17;102053.44;5053960;28;20521;-73
2024/01/27 00:51:59;;;;;;;2.93;0.87;;;;;;;5.96;82.79;102060.69;5053659;28;20542;-72
2024/01/27 00:54:26;;;;;;;2.10;0.90;;;;;;;6.01;82.93;102067.00;5052991;28;20869;-72
2024/01/27 00:56:52;;;;;;;4.80;0.57;;;;;;;6.01;82.54;102076.94;5053418;28;20442;-72
2024/01/27 00:59:20;;;;;;;1.50;0.30;;;;;;;5.96;83.37;102077.66;5053306;28;20445;-72
2024/01/27 01:01:47;;;;;;;1.50;0.30;;;;;;;6.01;82.97;102077.75;5053315;28;20566;-72
2024/01/27 01:04:14;;;;;;;1.60;0.30;;;;;;;6.01;82.30;102079.63;5053225;28;20524;-72
2024/01/27 01:06:41;;;;;;;1.57;0.37;;;;;;;6.08;82.21;102080.34;5053286;28;20453;-72
2024/01/27 01:09:08;;;;;;;1.70;0.50;;;;;;;6.14;81.52;102090.16;5053545;28;20430;-73
2024/01/27 01:11:35;;;;;;;1.90;0.43;;;;;;;6.12;81.93;102089.59;5053005;28;20493;-73
2024/01/27 01:14:01;;;;;;;1.80;0.60;;;;;;;6.09;81.57;102095.44;5052859;28;20930;-72
2024/01/27 01:16:29;;;;;;;1.53;0.40;;;;;;;6.05;82.34;102096.94;5053443;28;20438;-72
2024/01/27 01:18:56;;;;;;;1.60;0.40;;;;;;;6.01;83.17;102093.06;5053573;28;20438;-73
2024/01/27 01:21:23;;;;;;;1.60;0.40;;;;;;;5.97;82.70;102095.41;5052985;28;20458;-72
2024/01/27 01:23:49;;;;;;;5.20;0.63;;;;;;;5.91;83.93;102085.56;5052761;28;20466;-72
2024/01/27 01:26:16;;;;;;;2.53;0.60;;;;;;;6.01;83.12;102090.38;5052731;28;20886;-73
2024/01/27 01:28:43;;;;;;;1.60;0.40;;;;;;;6.02;82.90;102100.09;5053361;28;20456;-72
2024/01/27 01:31:09;;;;;;;5.57;1.93;;;;;;;6.00;83.39;102102.22;5053646;28;20900;-73
2024/01/27 01:33:37;;;;;;;12.93;0.93;;;;;;;5.90;83.43;102104.63;5057179;28;20557;-73
2024/01/27 01:36:04;;;;;;;1.80;0.40;;;;;;;6.02;82.91;102098.25;5057016;28;20529;-73
2024/01/27 01:38:31;;;;;;;2.10;0.50;;;;;;;5.99;83.36;102100.56;5056755;28;20445;-72
2024/01/27 01:40:57;;;;;;;1.50;0.30;;;;;;;5.97;83.40;102087.34;5057211;28;20437;-71
2024/01/27 01:43:24;;;;;;;2.03;0.40;;;;;;;5.91;83.96;102090.13;5056657;28;20561;-72
2024/01/27 01:45:53;;;;;;;4.37;0.73;;;;;;;5.95;83.83;102089.47;5057076;28;20822;-71
2024/01/27 01:48:20;;;;;;;2.07;0.40;;;;;;;5.95;83.93;102092.16;5056893;28;20546;-71
2024/01/27 01:50:49;;;;;;;1.60;0.40;;;;;;;5.91;84.78;102090.13;5056745;28;20489;-72
2024/01/27 01:53:15;;;;;;;3.03;1.30;;;;;;;5.78;86.38;102101.91;5056140;28;20973;-72
2024/01/27 01:55:42;;;;;;;1.60;0.40;;;;;;;5.79;85.81;102101.66;5056146;28;20918;-71
2024/01/27 01:58:09;;;;;;;1.60;0.50;;;;;;;5.87;85.91;102105.09;5056457;28;20474;-72
2024/01/27 02:00:36;;;;;;;2.23;0.50;;;;;;;5.94;85.57;102095.91;5056051;28;20439;-72
2024/01/27 02:03:03;;;;;;;4.03;0.40;;;;;;;5.93;85.70;102093.41;5055958;28;20920;-72
2024/01/27 02:05:29;;;;;;;4.90;1.47;;;;;;;5.87;86.07;102089.75;5056680;28;20572;-72
2024/01/27 02:07:59;;;;;;;1.60;0.30;;;;;;;5.83;86.58;102105.53;5056068;28;20811;-72
2024/01/27 02:10:26;;;;;;;1.70;0.53;;;;;;;5.83;86.85;102094.78;5056827;28;20528;-71
2024/01/27 02:12:53;;;;;;;1.60;0.40;;;;;;;5.88;86.37;102115.59;5056231;28;20473;-72
2024/01/27 02:15:21;;;;;;;1.53;0.30;;;;;;;5.88;86.51;102112.91;5056069;28;20504;-72
2024/01/27 02:17:48;;;;;;;1.50;0.30;;;;;;;5.91;86.60;102112.47;5056101;28;20442;-72
2024/01/27 02:20:14;;;;;;;1.50;0.30;;;;;;;5.85;86.51;102129.53;5056240;28;20531;-71
2024/01/27 02:22:41;;;;;;;1.60;0.50;;;;;;;5.81;86.85;102129.16;5055910;28;20541;-72
2024/01/27 02:25:09;;;;;;;2.43;0.47;;;;;;;5.80;87.05;102115.97;5056492;28;20529;-72
2024/01/27 02:27:36;;;;;;;2.07;0.50;;;;;;;5.83;87.39;102128.91;5056139;28;20458;-72
2024/01/27 02:30:03;;;;;;;14.20;1.07;;;;;;;5.87;87.04;102137.34;5055765;28;20495;-72
2024/01/27 02:32:29;;;;;;;6.70;0.50;;;;;;;5.92;86.53;102134.81;5055748;28;20541;-72
2024/01/27 02:34:56;;;;;;;2.53;0.60;;;;;;;5.90;86.85;102142.28;5055507;28;20521;-72
2024/01/27 02:37:22;;;;;;;1.50;0.30;;;;;;;5.89;86.87;102148.69;5055682;28;20526;-73
2024/01/27 02:39:49;;;;;;;1.57;0.40;;;;;;;5.92;87.11;102151.75;5055335;28;20489;-72
2024/01/27 02:42:17;;;;;;;1.80;0.40;;;;;;;5.99;86.48;102154.38;5055177;28;20866;-73
2024/01/27 02:44:44;;;;;;;3.13;1.20;;;;;;;5.97;85.87;102157.28;5055225;28;20485;-73
2024/01/27 02:47:10;;;;;;;2.33;0.67;;;;;;;5.96;86.11;102168.25;5055817;28;20442;-73
2024/01/27 02:49:37;;;;;;;5.20;0.63;;;;;;;5.92;86.54;102161.72;5055446;28;20871;-73
2024/01/27 02:52:04;;;;;;;1.70;0.43;;;;;;;5.89;86.07;102157.59;5055167;28;20565;-73
2024/01/27 02:54:31;;;;;;;2.07;0.50;;;;;;;5.85;86.34;102159.09;5055627;28;20445;-73
2024/01/27 02:56:57;;;;;;;1.57;0.30;;;;;;;5.84;86.84;102154.75;5055335;28;20444;-73
2024/01/27 02:59:24;;;;;;;1.60;0.30;;;;;;;5.73;86.84;102163.63;5055644;28;20489;-73
2024/01/27 03:01:51;;;;;;;1.60;0.40;;;;;;;5.75;87.01;102166.88;5055157;28;20454;-73
2024/01/27 03:04:17;;;;;;;1.50;0.30;;;;;;;5.63;87.26;102172.25;5055562;28;20492;-73
2024/01/27 03:06:44;;;;;;;2.53;0.70;;;;;;;5.55;88.27;102173.38;5055089;28;20500;-73
2024/01/27 03:09:11;;;;;;;1.60;0.40;;;;;;;5.50;88.55;102175.94;5055127;28;20851;-73
2024/01/27 03:11:38;;;;;;;1.97;0.50;;;;;;;5.41;88.98;102168.44;5054850;28;20512;-73
2024/01/27 03:14:04;;;;;;;3.30;1.03;;;;;;;5.38;89.74;102180.44;5054985;28;20477;-73
2024/01/27 03:16:32;;;;;;;1.57;0.30;;;;;;;5.30;90.23;102176.19;5054936;28;20434;-73
2024/01/27 03:18:59;;;;;;;1.70;0.53;;;;;;;5.26;90.29;102169.63;5054582;28;20521;-73
2024/01/27 03:21:26;;;;;;;1.53;0.30;;;;;;;5.32;90.28;102171.41;5054766;28;20529;-73
2024/01/27 03:23:53;;;;;;;1.90;0.50;;;;;;;5.21;90.91;102171.34;5054731;28;20521;-73
2024/01/27 03:26:19;;;;;;;1.60;0.40;;;;;;;5.21;91.08;102180.22;5054341;28;20489;-73
2024/01/27 03:28:46;;;;;;;1.70;0.50;;;;;;;5.02;91.56;102173.25;5054699;28;20452;-73
2024/01/27 03:31:13;;;;;;;1.50;0.30;;;;;;;5.04;92.17;102173.81;5054827;28;20525;-73
2024/01/27 03:33:41;;;;;;;1.60;0.30;;;;;;;4.97;92.65;102176.59;5054760;28;20867;-73
2024/01/27 03:36:10;;;;;;;1.60;0.30;;;;;;;4.94;93.52;102170.84;5054803;28;20496;-72
2024/01/27 03:38:37;;;;;;;2.00;0.50;;;;;;;4.99;93.09;102185.25;5054133;28;20438;-73
2024/01/27 03:41:04;;;;;;;5.10;0.60;;;;;;;4.98;92.60;102180.09;5054171;28;20438;-73
2024/01/27 03:43:32;;;;;;;1.57;0.40;;;;;;;4.94;92.94;102176.22;5054469;28;20900;-72
2024/01/27 03:45:59;;;;;;;1.50;0.30;;;;;;;4.92;92.87;102189.88;5054333;28;20450;-73
2024/01/27 03:48:25;;;;;;;1.60;0.40;;;;;;;4.90;93.38;102188.44;5054668;28;20883;-73
2024/01/27 03:50:53;;;;;;;4.23;0.90;;;;;;;4.82;94.03;102189.56;5054199;28;20573;-73
2024/01/27 03:53:20;;;;;;;4.37;0.90;;;;;;;4.91;93.86;102188.22;5053687;28;20509;-73
2024/01/27 03:55:46;;;;;;;4.00;1.10;;;;;;;4.93;93.63;102180.78;5053961;28;20470;-73
2024/01/27 03:58:13;;;;;;;1.80;0.53;;;;;;;4.90;93.75;102185.75;5053933;28;20529;-73
2024/01/27 04:00:40;;;;;;;1.60;0.43;;;;;;;4.85;94.19;102193.66;5054187;28;20799;-73
2024/01/27 04:03:08;;;;;;;1.57;0.30;;;;;;;4.88;94.38;102195.91;5054081;28;20466;-73
2024/01/27 04:05:36;;;;;;;4.80;0.60;;;;;;;4.88;94.46;102207.47;5054029;28;20533;-73
2024/01/27 04:08:05;;;;;;;4.17;1.53;;;;;;;4.93;94.82;102193.38;5054078;28;20473;-73
2024/01/27 04:10:32;;;;;;;3.97;0.97;;;;;;;4.91;94.85;102200.81;5054056;28;20482;-73
2024/01/27 04:12:58;;;;;;;2.20;0.70;;;;;;;4.86;95.18;102214.09;5054045;28;20450;-73
2024/01/27 04:15:25;;;;;;;1.57;0.30;;;;;;;4.86;95.30;102225.66;5053834;28;20465;-73
2024/01/27 04:17:52;;;;;;;2.20;0.50;;;;;;;4.86;95.52;102219.47;5053788;28;20438;-73
2024/01/27 04:20:18;;;;;;;1.70;0.40;;;;;;;4.88;95.21;102228.94;5053543;28;20926;-73
2024/01/27 04:22:45;;;;;;;1.70;0.50;;;;;;;4.89;95.16;102227.09;5053773;28;20461;-71
2024/01/27 04:25:13;;;;;;;2.67;0.60;;;;;;;4.87;95.31;102221.09;5053403;28;20960;-74
2024/01/27 04:27:42;;;;;;;2.10;0.70;;;;;;;4.91;94.76;102236.53;5053669;28;20525;-74
2024/01/27 04:30:09;;;;;;;2.53;0.40;;;;;;;4.90;95.16;102239.47;5053686;28;20441;-73
2024/01/27 04:32:36;;;;;;;1.60;0.43;;;;;;;4.91;95.10;102246.47;5053287;28;20813;-73
2024/01/27 04:35:04;;;;;;;1.60;0.40;;;;;;;4.85;95.96;102244.69;5053294;28;20915;-72
2024/01/27 04:37:30;;;;;;;1.53;0.30;;;;;;;4.88;95.74;102245.06;5053261;28;21013;-72
2024/01/27 04:39:57;;;;;;;3.37;0.90;;;;;;;4.92;95.95;102242.75;5053841;28;20517;-72
2024/01/27 04:42:25;;;;;;;2.90;0.57;;;;;;;4.89;95.82;102256.63;5053460;28;20486;-72
2024/01/27 04:44:52;;;;;;;1.53;0.40;;;;;;;4.93;95.47;102260.50;5053080;28;20540;-72
2024/01/27 04:47:19;;;;;;;2.83;0.60;;;;;;;4.85;96.14;102266.16;5053153;28;20465;-72
2024/01/27 04:49:45;;;;;;;3.23;0.53;;;;;;;4.86;96.19;102267.78;5053389;28;20470;-72
2024/01/27 04:52:12;;;;;;;1.57;0.30;;;;;;;4.86;96.23;102265.91;5053182;28;20486;-72
2024/01/27 04:54:39;;;;;;;1.57;0.30;;;;;;;4.90;96.17;102271.69;5053401;28;20938;-73
2024/01/27 04:57:06;;;;;;;1.60;0.40;;;;;;;4.96;96.38;102276.19;5053336;28;20529;-72
2024/01/27 04:59:34;;;;;;;1.80;0.50;;;;;;;4.98;96.29;102274.09;5053654;28;20442;-72
2024/01/27 05:02:01;;;;;;;1.53;0.33;;;;;;;4.99;96.44;102281.09;5053553;28;20826;-72
2024/01/27 05:04:27;;;;;;;2.43;0.73;;;;;;;5.06;96.31;102287.22;5053443;28;20662;-72
2024/01/27 05:06:54;;;;;;;1.57;0.30;;;;;;;5.03;96.53;102284.97;5055631;28;20453;-72
2024/01/27 05:09:21;;;;;;;1.73;0.47;;;;;;;5.10;95.96;102291.13;5057360;28;20918;-72
2024/01/27 05:11:48;;;;;;;2.03;0.57;;;;;;;5.13;96.15;102304.06;5057102;28;20493;-72
2024/01/27 05:14:15;;;;;;;3.20;1.40;;;;;;;5.19;96.09;102307.75;5057689;28;20488;-72
2024/01/27 05:16:43;;;;;;;1.50;0.30;;;;;;;5.23;95.60;102303.59;5056927;28;20430;-72
2024/01/27 05:19:11;;;;;;;1.70;0.57;;;;;;;5.22;95.49;102312.66;5056961;28;20942;-72
2024/01/27 05:21:38;;;;;;;2.27;0.83;;;;;;;5.30;95.26;102323.13;5057702;28;20486;-72
2024/01/27 05:24:06;;;;;;;1.70;0.57;;;;;;;5.31;95.05;102322.06;5057385;28;20802;-72
2024/01/27 05:26:32;;;;;;;1.90;0.40;;;;;;;5.29;95.47;102316.94;5057947;28;20859;-72
2024/01/27 05:28:59;;;;;;;4.10;0.90;;;;;;;5.31;95.40;102325.63;5057349;28;20521;-72
2024/01/27 05:31:27;;;;;;;2.37;0.50;;;;;;;5.37;95.52;102331.13;5056936;28;20524;-72
2024/01/27 05:33:55;;;;;;;1.50;0.30;;;;;;;5.45;94.45;102320.09;5056519;28;20452;-72
2024/01/27 05:36:21;;;;;;;10.20;1.07;;;;;;;5.41;94.72;102324.28;5056786;28;20529;-72
2024/01/27 05:38:48;;;;;;;1.70;0.50;;;;;;;5.44;95.27;102335.38;5056828;28;20935;-72
2024/01/27 05:41:15;;;;;;;1.80;0.67;;;;;;;5.46;94.54;102338.66;5056382;28;20527;-72
2024/01/27 05:43:41;;;;;;;1.60;0.40;;;;;;;5.51;94.34;102341.50;5075236;22;20532;-66
2024/01/27 05:46:09;;;;;;;1.50;0.30;;;;;;;5.48;94.99;102343.81;5076371;28;20997;-67
2024/01/27 05:48:36;;;;;;;1.90;0.70;;;;;;;5.55;94.17;102341.88;5076847;28;20520;-67
2024/01/27 05:51:05;;;;;;;1.50;0.30;;;;;;;5.55;94.37;102339.19;5076809;28;20451;-67
2024/01/27 05:53:31;;;;;;;17.90;1.13;;;;;;;5.59;94.33;102339.59;5076354;28;20996;-68
2024/01/27 05:55:58;;;;;;;1.90;0.50;;;;;;;5.69;93.53;102340.69;5076424;28;20445;-67
2024/01/27 05:58:24;;;;;;;1.57;0.30;;;;;;;5.68;93.68;102344.44;5076384;28;20524;-67
2024/01/27 06:00:51;;;;;;;1.60;0.40;;;;;;;5.67;93.76;102347.34;5076485;28;20476;-67
2024/01/27 06:03:18;;;;;;;1.73;0.60;;;;;;;5.68;94.01;102354.34;5076463;28;20536;-67
2024/01/27 06:05:44;;;;;;;1.80;0.60;;;;;;;5.74;93.68;102354.25;5075934;28;20949;-67
2024/01/27 06:08:12;;;;;;;1.70;0.50;;;;;;;5.67;94.49;102352.72;5076482;28;20516;-67
2024/01/27 06:10:39;;;;;;;2.30;0.83;;;;;;;5.76;93.67;102354.88;5076211;28;20804;-67
2024/01/27 06:13:06;;;;;;;1.60;0.40;;;;;;;5.76;93.75;102362.13;5076375;28;20599;-67
2024/01/27 06:15:32;;;;;;;1.53;0.30;;;;;;;5.77;93.87;102374.53;5076284;28;20437;-68
2024/01/27 06:17:59;;;;;;;1.60;0.43;;;;;;;5.76;93.94;102375.56;5075570;28;20476;-68
2024/01/27 06:20:26;;;;;;;1.60;0.40;;;;;;;5.73;94.65;102376.00;5075946;28;20449;-68
2024/01/27 06:22:53;;;;;;;1.50;0.30;;;;;;;5.68;94.70;102374.00;5075872;28;20819;-67
2024/01/27 06:25:22;;;;;;;1.53;0.30;;;;;;;5.73;94.43;102386.75;5075894;28;20448;-67
2024/01/27 06:27:48;;;;;;;1.67;0.40;;;;;;;5.78;94.30;102384.22;5075554;28;20473;-67
2024/01/27 06:30:15;;;;;;;5.60;0.67;;;;;;;5.78;94.25;102392.28;5075420;28;20832;-68
2024/01/27 06:32:42;;;;;;;1.60;0.40;;;;;;;5.75;94.70;102385.47;5075572;28;20489;-67
2024/01/27 06:35:09;;;;;;;1.50;0.40;;;;;;;5.69;95.04;102378.31;5075691;28;20876;-67
2024/01/27 06:37:36;;;;;;;1.77;0.47;;;;;;;5.65;95.08;102377.13;5075707;28;20967;-67
2024/01/27 06:40:02;;;;;;;1.60;0.40;;;;;;;5.66;95.08;102377.94;5075694;28;20441;-67
2024/01/27 06:42:30;;;;;;;1.60;0.47;;;;;;;5.62;94.90;102382.13;5075730;28;20464;-67
2024/01/27 06:44:57;;;;;;;2.10;0.53;;;;;;;5.54;95.65;102391.31;5075504;28;20450;-67
2024/01/27 06:47:23;;;;;;;3.40;0.60;;;;;;;5.57;95.77;102390.84;5075509;28;20523;-67
2024/01/27 06:49:50;;;;;;;1.70;0.50;;;;;;;5.66;95.08;102405.63;5075488;28;20445;-67
2024/01/27 06:52:17;;;;;;;1.80;0.40;;;;;;;5.68;95.03;102398.19;5074870;28;21022;-67
2024/01/27 06:54:46;;;;;;;1.90;0.50;;;;;;;5.65;95.35;102422.81;5075494;28;21016;-66
2024/01/27 06:57:19;;;;;;;2.00;0.70;;;;;;;5.71;95.13;102427.31;5075555;28;20447;-67
2024/01/27 06:59:51;;;;;;;1.60;0.50;;;;;;;5.69;95.53;102426.72;5075673;28;20425;-66
2024/01/27 07:02:18;;;;;;;1.60;0.40;;;;;;;5.71;95.61;102423.78;5075076;28;20457;-67
2024/01/27 07:04:45;;;;;;;2.00;0.80;;;;;;;5.67;95.72;102433.38;5075212;28;20444;-68
2024/01/27 07:07:12;;;;;;;3.80;0.63;;;;;;;5.72;95.76;102428.97;5075373;28;20437;-68
2024/01/27 07:09:38;;;;;;;1.57;0.33;;;;;;;5.73;95.70;102432.47;5075038;28;20441;-67
2024/01/27 07:12:06;;;;;;;4.90;0.80;;;;;;;5.75;95.52;102436.56;5074893;28;20482;-67
2024/01/27 07:14:32;;;;;;;2.03;0.50;;;;;;;5.78;95.52;102436.13;5075003;28;20444;-67
2024/01/27 07:17:00;;;;;;;1.70;0.50;;;;;;;5.78;95.45;102449.56;5075176;28;20488;-67
2024/01/27 07:19:28;;;;;;;1.50;0.30;;;;;;;5.75;95.32;102452.69;5075675;28;20520;-67
2024/01/27 07:21:54;;;;;;;2.10;0.50;;;;;;;5.71;95.98;102450.66;5075081;28;20465;-67
2024/01/27 07:24:21;;;;;;;2.00;0.73;;;;;;;5.76;95.86;102458.91;5074758;28;20437;-67
2024/01/27 07:26:47;;;;;;;1.63;0.63;;;;;;;5.80;95.54;102463.63;5074433;28;20925;-67
2024/01/27 07:29:14;;;;;;;1.60;0.50;;;;;;;5.85;95.20;102467.53;5073917;28;20548;-67
2024/01/27 07:31:41;;;;;;;2.67;0.73;;;;;;;5.85;95.11;102473.72;5074388;28;20509;-67
2024/01/27 07:34:09;;;;;;;1.60;0.40;;;;;;;5.86;95.31;102477.22;5074626;28;20437;-67
2024/01/27 07:36:36;;;;;;;2.33;1.07;;;;;;;5.91;94.88;102485.44;5075440;28;20481;-67
2024/01/27 07:39:04;;;;;;;1.80;0.70;;;;;;;5.85;95.22;102487.16;5074745;28;20559;-67
2024/01/27 07:41:31;;;;;;;1.80;0.40;;;;;;;5.88;95.60;102493.94;5074316;28;20459;-67
2024/01/27 07:43:57;;;;;;;1.80;0.70;;;;;;;5.98;94.60;102495.13;5074353;28;20920;-66
2024/01/27 07:46:24;;;;;;;2.10;0.80;;;;;;;5.99;94.60;102495.94;5074569;28;20434;-68
2024/01/27 07:48:51;;;;;;;1.60;0.40;;;;;;;6.04;94.08;102504.16;5074309;28;20511;-68
2024/01/27 07:51:19;;;;;;;2.30;0.80;;;;;;;6.10;94.25;102505.94;5074048;28;20955;-68
2024/01/27 07:53:45;;;;;;;2.17;0.50;;;;;;;6.10;94.13;102511.34;5074434;28;20572;-68
2024/01/27 07:56:12;;;;;;;1.80;0.70;;;;;;;6.14;94.11;102509.03;5074471;28;20449;-68
2024/01/27 07:58:38;;;;;;;2.37;0.63;;;;;;;6.06;94.49;102512.81;5074293;28;20524;-68
2024/01/27 08:01:05;;;;;;;3.20;0.83;;;;;;;6.14;93.69;102517.09;5074377;28;20524;-68
2024/01/27 08:03:32;;;;;;;1.60;0.40;;;;;;;6.14;94.01;102515.22;5074559;28;20527;-68
2024/01/27 08:05:59;;;;;;;1.60;0.40;;;;;;;6.15;93.82;102522.25;5074269;28;20444;-68
2024/01/27 08:08:27;;;;;;;2.87;0.60;;;;;;;6.23;93.14;102527.34;5073997;28;20867;-71
2024/01/27 08:10:53;;;;;;;1.60;0.40;;;;;;;6.24;93.27;102515.53;5074455;28;20465;-68
2024/01/27 08:13:20;;;;;;;2.30;0.70;;;;;;;6.26;92.83;102534.97;5074465;28;20495;-68
2024/01/27 08:15:46;;;;;;;8.30;0.50;;;;;;;6.30;92.89;102514.63;5074878;28;20465;-68
2024/01/27 08:18:13;;;;;;;1.70;0.60;;;;;;;6.36;92.42;102520.97;5074561;28;20476;-68
2024/01/27 08:20:40;;;;;;;2.17;0.47;;;;;;;6.38;92.48;102512.69;5074517;28;20460;-68
2024/01/27 08:23:07;;;;;;;3.03;0.80;;;;;;;6.35;92.31;102515.84;5074277;28;20492;-68
2024/01/27 08:25:35;;;;;;;1.70;0.50;;;;;;;6.40;92.28;102524.88;5073926;28;20477;-67
2024/01/27 08:28:01;;;;;;;1.70;0.50;;;;;;;6.41;92.22;102525.69;5074029;28;20475;-68
2024/01/27 08:30:28;;;;;;;2.47;0.87;;;;;;;6.38;92.35;102543.13;5074220;28;20448;-68
2024/01/27 08:32:54;;;;;;;3.70;0.80;;;;;;;6.36;92.78;102539.00;5073638;28;20588;-68
2024/01/27 08:35:21;;;;;;;1.60;0.50;;;;;;;6.45;92.19;102543.84;5073787;28;20444;-68
2024/01/27 08:37:48;;;;;;;1.60;0.50;;;;;;;6.44;92.41;102544.09;5073819;28;20433;-68
2024/01/27 08:40:17;;;;;;;6.07;0.70;;;;;;;6.48;91.18;102558.75;5074009;28;20879;-67
2024/01/27 08:42:45;;;;;;;1.70;0.50;;;;;;;6.56;91.19;102553.88;5073412;28;20465;-68
2024/01/27 08:45:11;;;;;;;1.50;0.30;;;;;;;6.52;91.92;102571.53;5073823;28;20477;-69
2024/01/27 08:47:38;;;;;;;6.60;1.00;;;;;;;6.58;91.77;102559.03;5073759;28;20490;-69
2024/01/27 08:50:06;;;;;;;2.27;0.77;;;;;;;6.62;91.56;102562.94;5073363;28;20444;-68
2024/01/27 08:52:32;;;;;;;2.13;0.50;;;;;;;6.66;91.02;102580.28;5072911;28;20489;-69
2024/01/27 08:54:59;;;;;;;1.70;0.50;;;;;;;6.64;91.31;102568.91;5073594;28;20451;-69
2024/01/27 08:57:25;;;;;;;1.57;0.40;;;;;;;6.70;91.54;102573.41;5073497;28;20449;-68
2024/01/27 08:59:53;;;;;;;1.67;0.50;;;;;;;6.82;89.69;102570.78;5073026;28;20436;-67
2024/01/27 09:02:20;;;;;;;1.70;0.40;;;;;;;6.81;89.69;102569.09;5073646;28;20514;-67
2024/01/27 09:04:47;;;;;;;1.63;0.40;;;;;;;6.79;89.88;102571.22;5073504;28;20433;-65
2024/01/27 09:07:13;;;;;;;1.60;0.47;;;;;;;6.78;89.93;102578.47;5073352;28;20448;-66
2024/01/27 09:09:40;;;;;;;2.63;0.73;;;;;;;6.78;89.43;102583.88;5073726;28;20441;-65
2024/01/27 09:12:07;;;;;;;3.10;0.67;;;;;;;6.81;89.87;102579.88;5073175;28;20930;-65
2024/01/27 09:14:34;;;;;;;1.90;0.43;;;;;;;6.78;89.79;102597.31;5073678;28;20445;-65
2024/01/27 09:17:02;;;;;;;2.43;0.80;;;;;;;6.81;89.90;102580.69;5073195;28;20441;-67
2024/01/27 09:19:29;;;;;;;1.60;0.40;;;;;;;6.88;89.71;102593.28;5073186;28;20425;-67
2024/01/27 09:21:55;;;;;;;1.53;0.30;;;;;;;6.91;89.31;102585.56;5072858;28;20464;-67
2024/01/27 09:24:22;;;;;;;1.73;0.50;;;;;;;6.97;89.21;102600.00;5073328;28;20525;-67
2024/01/27 09:26:49;;;;;;;3.40;0.97;;;;;;;7.03;88.24;102596.38;5073079;28;20516;-67
2024/01/27 09:29:15;;;;;;;1.60;0.40;;;;;;;7.03;88.61;102593.69;5073040;28;20536;-67
2024/01/27 09:31:42;;;;;;;1.80;0.40;;;;;;;7.02;88.64;102592.88;5072977;28;20488;-67
2024/01/27 09:34:10;;;;;;;2.00;1.00;;;;;;;7.04;88.84;102598.88;5072666;28;20910;-68
2024/01/27 09:36:37;;;;;;;4.40;1.10;;;;;;;7.13;88.35;102590.44;5072635;28;20474;-68
2024/01/27 09:39:03;;;;;;;1.60;0.40;;;;;;;7.22;86.64;102606.09;5073284;28;20445;-69
2024/01/27 09:41:32;;;;;;;1.70;0.50;;;;;;;7.19;86.89;102606.53;5072911;28;20496;-68
2024/01/27 09:44:02;;;;;;;1.60;0.40;;;;;;;7.08;88.43;102601.91;5072677;28;20933;-68
2024/01/27 09:46:29;;;;;;;1.57;0.30;;;;;;;7.13;87.65;102607.47;5072544;28;20430;-68
2024/01/27 09:48:56;;;;;;;2.73;0.50;;;;;;;7.20;87.33;102616.25;5072914;28;20826;-67
2024/01/27 09:51:26;;;;;;;1.80;0.60;;;;;;;7.22;87.14;102630.34;5072505;28;20469;-68
2024/01/27 09:53:53;;;;;;;1.70;0.60;;;;;;;7.24;86.90;102628.22;5075735;28;20554;-68
2024/01/27 09:56:21;;;;;;;1.50;0.30;;;;;;;7.29;86.79;102631.06;5076418;28;20443;-67
2024/01/27 09:58:49;;;;;;;2.20;0.57;;;;;;;7.28;87.00;102628.59;5076925;28;20478;-68
2024/01/27 10:01:18;;;;;;;1.60;0.37;;;;;;;7.31;87.91;102631.69;5076332;28;20491;-68
2024/01/27 10:03:44;;;;;;;3.20;0.77;;;;;;;7.33;87.46;102623.34;5076119;28;20531;-68
2024/01/27 10:06:11;;;;;;;1.60;0.40;;;;;;;7.30;87.44;102632.72;5075960;28;20477;-68
2024/01/27 10:08:39;;;;;;;9.23;0.70;;;;;;;7.27;87.36;102632.38;5076303;28;20444;-68
2024/01/27 10:11:08;;;;;;;1.60;0.40;;;;;;;7.29;88.41;102625.69;5076241;28;20864;-68
2024/01/27 10:13:35;;;;;;;2.77;1.00;;;;;;;7.25;88.55;102629.88;5075984;28;20524;-67
2024/01/27 10:16:03;;;;;;;1.80;0.50;;;;;;;7.24;87.86;102635.50;5075775;28;20972;-68
2024/01/27 10:18:29;;;;;;;1.70;0.50;;;;;;;7.23;88.67;102634.69;5076033;28;20480;-68
2024/01/27 10:20:56;;;;;;;1.60;0.40;;;;;;;7.32;88.08;102637.88;5075932;28;20443;-68
2024/01/27 10:23:23;;;;;;;1.70;0.60;;;;;;;7.29;88.92;102643.72;5075574;28;21050;-68
2024/01/27 10:25:51;;;;;;;1.70;0.40;;;;;;;7.43;88.18;102644.34;5075986;28;20433;-68
2024/01/27 10:28:18;;;;;;;2.90;1.17;;;;;;;7.49;87.44;102640.78;5076583;28;20469;-69
2024/01/27 10:30:45;;;;;;;3.10;0.93;;;;;;;7.47;87.53;102649.06;5075709;28;20529;-68
2024/01/27 10:33:13;;;;;;;1.70;0.50;;;;;;;7.31;88.52;102642.47;5075855;28;20584;-68
2024/01/27 10:35:40;;;;;;;1.60;0.40;;;;;;;7.27;89.10;102638.56;5075333;28;20952;-67
2024/01/27 10:38:07;;;;;;;2.00;0.70;;;;;;;7.39;88.44;102644.00;5075420;28;20809;-68
2024/01/27 10:40:34;;;;;;;1.70;0.50;;;;;;;7.37;89.49;102642.59;5075697;28;20456;-67
2024/01/27 10:43:06;;;;;;;1.70;0.50;;;;;;;7.46;88.94;102652.00;5075477;28;20454;-68
2024/01/27 10:45:37;;;;;;;1.70;0.60;;;;;;;7.50;87.95;102648.63;5076068;28;20418;-68
2024/01/27 10:48:04;;;;;;;1.70;0.70;;;;;;;7.37;88.57;102650.69;5075791;28;20786;-68
2024/01/27 10:50:35;;;;;;;2.20;0.80;;;;;;;7.38;89.38;102660.41;5075434;28;20451;-67
2024/01/27 10:53:04;;;;;;;3.20;0.83;;;;;;;7.44;88.29;102652.25;5075552;28;20980;-67
2024/01/27 10:55:31;;;;;;;17.17;1.03;;;;;;;7.44;88.65;102659.50;5075247;28;20441;-68
2024/01/27 10:58:01;;;;;;;1.77;0.57;;;;;;;7.49;87.94;102660.47;5074897;28;20856;-67
2024/01/27 11:00:30;;;;;;;2.00;0.60;;;;;;;7.53;87.99;102666.22;5074879;28;20445;-68
2024/01/27 11:02:59;;;;;;;1.80;0.60;;;;;;;7.52;87.93;102672.66;5074930;28;20460;-67
2024/01/27 11:05:28;;;;;;;2.97;0.70;;;;;;;7.45;88.01;102672.75;5073953;28;20445;-67
2024/01/27 11:07:56;;;;;;;3.37;0.70;;;;;;;7.41;89.02;102670.75;5074816;28;20429;-67
2024/01/27 11:10:24;;;;;;;2.90;0.93;;;;;;;7.38;88.82;102666.63;5075003;28;20452;-68
2024/01/27 11:12:54;;;;;;;3.60;1.00;;;;;;;7.42;88.94;102662.41;5074868;28;20449;-68
2024/01/27 11:15:21;;;;;;;1.60;0.50;;;;;;;7.43;89.62;102660.53;5074956;28;20445;-68
2024/01/27 11:17:49;;;;;;;3.37;0.53;;;;;;;7.41;89.77;102663.47;5074891;28;21017;-68
2024/01/27 11:20:16;;;;;;;2.13;0.53;;;;;;;7.43;89.86;102664.06;5074925;28;20448;-68
2024/01/27 11:22:43;;;;;;;1.70;0.60;;;;;;;7.55;89.55;102667.63;5074513;28;20518;-68
2024/01/27 11:25:16;;;;;;;2.23;0.83;;;;;;;7.58;89.31;102672.56;5074878;28;20441;-68
2024/01/27 11:27:44;;;;;;;1.73;0.70;;;;;;;7.64;88.24;102673.50;5075071;28;20508;-68
2024/01/27 11:30:26;;;;;;;1.80;0.60;;;;;;;7.64;88.43;102676.22;5074940;28;20503;-68
2024/01/27 11:32:55;;;;;;;2.37;0.93;;;;;;;7.64;88.23;102684.31;5074534;28;20532;-68